• Join FlightAware (Why Join?)
  • Login
  • US Flag 
04:41AM EDT


 

Airport Tracker/Info


-or-


 

Live Flight TrackerFlight Track Log ✈ N79MJ ✈ 29-Apr-2012 ✈ KBFI - KSTS

Flight Track Log - Related Links

Times and Time Zones

All times are in EDT time to prevent confusion due to time zone crossing. See the N79MJ flight status page for this flight to view local times or setup timezone preferences in your user account.

Time Position Orientation Groundspeed Altitude Reporting Facility
EDT Latitude Longitude Course Direction KTS MPH feet Rate Location/Type
03:56PM 47.5003 -122.2778 144° Southeast 86 99 600  Level Seattle Center
03:57PM 47.4819 -122.2583 142° Southeast 89 102 1,000 480 Climbing Seattle Center
03:58PM 47.4631 -122.2361 142° Southeast 88 101 1,600 540 Climbing Seattle Center
03:59PM 47.4439 -122.2136 144° Southeast 90 104 2,200 540 Climbing Seattle Center
04:00PM 47.4258 -122.1944 109° East 86 99 2,700 540 Climbing Seattle Center
04:01PM 47.4203 -122.1706 332° Northwest 92 106 3,200 540 Climbing Seattle Center
04:02PM 47.4367 -122.1836 286° West 89 102 3,800 540 Climbing Seattle Center
04:03PM 47.4428 -122.2158 291° West 85 98 4,400 540 Climbing Seattle Center
04:04PM 47.4514 -122.2483 291° West 85 98 4,900 540 Climbing Seattle Center
04:05PM 47.4600 -122.2808 282° West 87 100 5,500 540 Climbing Seattle Center
04:06PM 47.4650 -122.3156 255° West 91 105 6,000 300 Climbing Seattle Center
04:07PM 47.4569 -122.3608 254° West 111 128 6,100  Climbing Seattle Center
04:08PM 47.4464 -122.4156 250° West 131 151 6,100  Level Seattle Center
04:09PM 47.4331 -122.4689 252° West 133 153 6,100  Level Seattle Center
04:10PM 47.4206 -122.5247 250° West 137 158 6,100  Level Seattle Center
04:11PM 47.4072 -122.5778 223° Southwest 137 158 6,100 120 Level Seattle Center
04:12PM 47.3842 -122.6100 192° South 130 150 6,400 420 Climbing Seattle Center
04:13PM 47.3533 -122.6200 205° Southwest 93 107 7,000 300 Climbing Seattle Center
04:14PM 47.3269 -122.6378 208° Southwest 113 130 7,100 360 Climbing Seattle Center
04:15PM 47.3008 -122.6583 204° Southwest 107 123 7,800 600 Climbing Seattle Center
04:16PM 47.2742 -122.6761 205° Southwest 91 105 8,500 540 Climbing Seattle Center
04:17PM 47.2536 -122.6906 208° Southwest 91 105 9,000 300 Climbing Seattle Center
04:18PM 47.2275 -122.7111 206° Southwest 113 130 9,100  Climbing Seattle Center
04:19PM 47.1925 -122.7367 208° Southwest 135 155 9,100  Level Seattle Center
04:20PM 47.1589 -122.7628 206° Southwest 138 159 9,200 180 Climbing Seattle Center
04:21PM 47.1247 -122.7875 208° Southwest 139 160 9,500 480 Climbing Seattle Center
04:22PM 47.0917 -122.8128 206° Southwest 116 133 10,200 540 Climbing Seattle Center
04:23PM 47.0667 -122.8306 208° Southwest 102 117 10,700 420 Climbing Seattle Center
04:24PM 47.0408 -122.8508 208° Southwest 106 122 11,100 180 Climbing Seattle Center
04:25PM 47.0108 -122.8739 206° Southwest 128 147 11,100  Level Seattle Center
04:26PM 46.9769 -122.8986 203° Southwest 139 160 11,100  Level Seattle Center
04:27PM 46.9414 -122.9208 190° South 141 162 11,100  Level Seattle Center
04:28PM 46.9014 -122.9308 193° South 145 167 11,100  Level Seattle Center
04:29PM 46.8542 -122.9464 195° South 146 168 11,100  Level Seattle Center
04:30PM 46.8153 -122.9614 195° South 146 168 11,100  Level Seattle Center
04:31PM 46.7769 -122.9761 195° South 145 167 11,100  Level Seattle Center
04:32PM 46.7389 -122.9908 193° South 144 166 11,100  Level Seattle Center
04:33PM 46.6997 -123.0044 196° South 145 167 11,100  Level Seattle Center
04:34PM 46.6614 -123.0203 196° South 145 167 11,100  Level Seattle Center
04:35PM 46.6231 -123.0361 196° South 145 167 11,100  Level Seattle Center
04:36PM 46.5767 -123.0550 198° South 146 168 11,100  Level Seattle Center
04:37PM 46.5378 -123.0739 194° South 148 170 11,100  Level Seattle Center
04:38PM 46.4986 -123.0883 195° South 147 169 11,100  Level Seattle Center
04:39PM 46.4597 -123.1039 194° South 146 168 11,100  Level Seattle Center
04:40PM 46.4217 -123.1172 189° South 145 167 11,100  Level Seattle Center
04:42PM 46.3825 -123.1267 165° South 144 166 11,100  Level Seattle Center
04:43PM 46.3317 -123.1069 172° South 154 177 11,100  Level Seattle Center
04:44PM 46.2897 -123.0989 176° South 154 177 11,100  Level Seattle Center
04:45PM 46.2475 -123.0942 176° South 155 178 11,100  Level Seattle Center
04:46PM 46.2061 -123.0900 173° South 153 176 11,100 -60 Level Seattle Center
04:47PM 46.1572 -123.0808 176° South 153 176 11,000 -60 Descending Seattle Center
04:48PM 46.1192 -123.0772 175° South 153 176 11,000  Level Seattle Center
04:49PM 46.0736 -123.0711 177° South 153 176 11,000  Level Seattle Center
04:49PM 46.0400 -123.0683 175° South 153 176 11,000  Level Seattle Center
04:50PM 45.9992 -123.0631 173° South 152 175 11,000  Level Seattle Center
04:51PM 45.9558 -123.0556 175° South 152 175 11,000  Level Seattle Center
04:52PM 45.9103 -123.0494 174° South 153 176 11,000  Level Seattle Center
04:53PM 45.8647 -123.0431 176° South 153 176 11,000  Level Seattle Center
04:55PM 45.8136 -123.0383 174° South 153 176 11,100  Climbing Seattle Center
04:56PM 45.7811 -123.0333 174° South 153 176 11,000 -60 Descending Seattle Center
04:57PM 45.7356 -123.0269 176° South 153 176 11,000  Level Seattle Center
04:58PM 45.6856 -123.0225 175° South 155 178 11,100  Climbing Seattle Center
04:59PM 45.6428 -123.0169 174° South 156 180 11,100  Level Seattle Center
05:00PM 45.5994 -123.0108 176° South 156 180 11,100  Level Seattle Center
05:01PM 45.5572 -123.0064 175° South 153 176 11,100 -60 Level Seattle Center
05:02PM 45.5144 -123.0006 175° South 154 177 11,000 -60 Descending Seattle Center
05:03PM 45.4731 -122.9958 175° South 152 175 11,000  Level Seattle Center
05:04PM 45.4214 -122.9889 174° South 153 176 11,000  Level Seattle Center
05:05PM 45.3778 -122.9822 175° South 156 180 11,100  Climbing Seattle Center
05:06PM 45.3356 -122.9767 201° Southwest 154 177 11,000  Descending Seattle Center
05:07PM 45.2981 -122.9975 197° South 147 169 11,100  Climbing Seattle Center
05:08PM 45.2606 -123.0136 194° South 143 165 11,100  Level Seattle Center
05:09PM 45.2206 -123.0281 195° South 146 168 11,100  Level Seattle Center
05:10PM 45.1814 -123.0428 195° South 146 168 11,100  Level Seattle Center
05:11PM 45.1422 -123.0578 195° South 145 167 11,100  Level Seattle Center
05:12PM 45.1033 -123.0728 195° South 145 167 11,100  Level Seattle Center
05:13PM 45.0636 -123.0881 195° South 147 169 11,100  Level Seattle Center
05:14PM 45.0164 -123.1056 194° South 146 168 11,100  Level Seattle Center
05:15PM 44.9764 -123.1200 195° South 147 169 11,100  Level Seattle Center
05:16PM 44.9364 -123.1356 195° South 149 171 11,100  Level Seattle Center
05:17PM 44.8972 -123.1503 194° South 146 168 11,100  Level Seattle Center
05:18PM 44.8572 -123.1639 195° South 147 169 11,100  Level Seattle Center
05:19PM 44.8178 -123.1786 195° South 146 168 11,100  Level Seattle Center
05:20PM 44.7778 -123.1933 195° South 148 170 11,100  Level Seattle Center
05:21PM 44.7375 -123.2086 194° South 149 171 11,100  Level Seattle Center
05:22PM 44.6983 -123.2225 194° South 147 169 11,100  Level Seattle Center
05:23PM 44.6578 -123.2367 195° South 148 170 11,100  Level Seattle Center
05:24PM 44.6175 -123.2514 195° South 149 171 11,100  Level Seattle Center
05:25PM 44.5703 -123.2692 194° South 147 169 11,100  Level Seattle Center
05:26PM 44.5294 -123.2836 194° South 149 171 11,100  Level Seattle Center
05:27PM 44.4894 -123.2978 195° South 149 171 11,100  Level Seattle Center
05:28PM 44.4506 -123.3128 196° South 147 169 11,100  Level Seattle Center
05:30PM 44.4111 -123.3283 195° South 147 169 11,100  Level Seattle Center
05:31PM 44.3708 -123.3433 195° South 149 171 11,100  Level Seattle Center
05:32PM 44.3311 -123.3586 194° South 149 171 11,100  Level Seattle Center
05:33PM 44.2908 -123.3731 196° South 149 171 11,100  Level Seattle Center
05:34PM 44.2503 -123.3894 194° South 151 174 11,100  Level Seattle Center
05:35PM 44.2103 -123.4036 194° South 150 173 11,100  Level Seattle Center
05:36PM 44.1706 -123.4175 195° South 148 170 11,100  Level Seattle Center
05:37PM 44.1228 -123.4347 195° South 149 171 11,100  Level Seattle Center
05:38PM 44.0825 -123.4500 194° South 150 173 11,100  Level Seattle Center
05:39PM 44.0425 -123.4642 174° South 148 170 11,100  Level Seattle Center
05:40PM 44.0017 -123.4578 171° South 149 171 11,100  Level Seattle Center
05:41PM 43.9581 -123.4481 175° South 157 181 11,100  Level Seattle Center
05:42PM 43.9156 -123.4425 174° South 156 180 11,100  Level Seattle Center
05:43PM 43.8725 -123.4367 175° South 154 177 11,100  Level Seattle Center
05:44PM 43.8292 -123.4314 176° South 156 180 11,100  Level Seattle Center
05:45PM 43.7847 -123.4267 175° South 159 183 11,100  Level Seattle Center
05:46PM 43.7331 -123.4206 175° South 157 181 11,100  Level Seattle Center
05:47PM 43.6892 -123.4153 175° South 157 181 11,100  Level Seattle Center
05:48PM 43.6461 -123.4097 174° South 157 181 11,100  Level Seattle Center
05:49PM 43.6039 -123.4036 176° South 154 177 11,100  Level Seattle Center
05:50PM 43.5603 -123.3992 175° South 156 180 11,100  Level Seattle Center
05:51PM 43.5175 -123.3939 176° South 155 178 11,100  Level Seattle Center
05:52PM 43.4736 -123.3894 174° South 157 181 11,100  Level Seattle Center
05:53PM 43.4300 -123.3836 174° South 157 181 11,100  Level Seattle Center
05:54PM 43.3872 -123.3772 174° South 157 181 11,100  Level Seattle Center
05:55PM 43.3433 -123.3706 174° South 157 181 11,100  Level Seattle Center
05:56PM 43.3003 -123.3647 175° South 156 180 11,100  Level Seattle Center
05:57PM 43.2481 -123.3583 175° South 156 180 11,100  Level Seattle Center
05:58PM 43.2053 -123.3531 176° South 155 178 11,100  Level Seattle Center
05:59PM 43.1617 -123.3486 153° Southeast 156 180 11,100  Level Seattle Center
06:00PM 43.1222 -123.3208 150° Southeast 154 177 11,100  Level Seattle Center
06:01PM 43.0828 -123.2897 155° Southeast 158 182 11,100  Level Seattle Center
06:02PM 43.0431 -123.2644 155° Southeast 158 182 11,100  Level Seattle Center
06:03PM 43.0028 -123.2386 153° Southeast 158 182 11,100  Level Seattle Center
06:04PM 42.9639 -123.2119 158° South 157 181 11,100  Level Seattle Center
06:05PM 42.9236 -123.1897 153° Southeast 156 180 11,100  Level Seattle Center
06:06PM 42.8850 -123.1633 155° Southeast 155 178 11,100  Level Seattle Center
06:07PM 42.8450 -123.1383 157° South 156 180 11,100  Level Seattle Center
06:08PM 42.7967 -123.1103 153° Southeast 157 181 11,100  Level Seattle Center
06:09PM 42.7589 -123.0842 156° South 154 177 11,100  Level Seattle Center
06:10PM 42.7192 -123.0597 156° South 155 178 11,100  Level Seattle Center
06:11PM 42.6853 -123.0392 155° Southeast 156 180 11,100  Level Seattle Center
06:12PM 42.6378 -123.0094 155° Southeast 157 181 11,100  Level Seattle Center
06:13PM 42.5983 -122.9850 155° Southeast 157 181 11,100  Level Seattle Center
06:14PM 42.5589 -122.9597 157° South 156 180 11,100  Level Seattle Center
06:15PM 42.5172 -122.9356 155° Southeast 160 184 11,100  Level Seattle Center
06:16PM 42.4778 -122.9108 167° South 158 182 11,100  Level Seattle Center
06:17PM 42.4353 -122.8981 184° South 158 182 11,100  Level Seattle Center
06:18PM 42.3928 -122.9017 177° South 158 182 11,100  Level Seattle Center
06:19PM 42.3486 -122.8986 176° South 158 182 11,100  Level Seattle Center
06:20PM 42.3053 -122.8942 175° South 157 181 11,100  Level Seattle Center
06:21PM 42.2622 -122.8886 177° South 156 180 11,100  Level Seattle Center
06:23PM 42.2100 -122.8844 177° South 157 181 11,100  Level Seattle Center
06:24PM 42.1667 -122.8811 176° South 157 181 11,100  Level Seattle Center
06:25PM 42.1233 -122.8769 174° South 157 181 11,100 240 Level Seattle Center
06:26PM 42.0833 -122.8711 176° South 149 171 11,700 540 Climbing Seattle Center
06:27PM 42.0472 -122.8675 175° South 136 157 12,200 480 Climbing Seattle Center
06:28PM 42.0103 -122.8633 177° South 134 154 12,700 420 Climbing Seattle Center
06:29PM 41.9742 -122.8606 178° South 133 153 13,100 240 Climbing Seattle Center
06:30PM 41.9353 -122.8592 177° South 135 155 13,200  Climbing Seattle Center
06:31PM 41.8919 -122.8564 176° South 143 165 13,100 -60 Descending Seattle Center
06:32PM 41.8350 -122.8506 175° South 156 180 13,100  Level Seattle Center
06:33PM 41.7881 -122.8447 174° South 162 186 13,100  Level Seattle Center
06:34PM 41.7417 -122.8386 176° South 165 190 13,100  Level Seattle Center
06:35PM 41.6961 -122.8342 175° South 165 190 13,100  Level Seattle Center
06:36PM 41.6503 -122.8289 177° South 165 190 13,100  Level Seattle Center
06:37PM 41.6050 -122.8253 176° South 164 189 13,100  Level Seattle Center
06:38PM 41.5589 -122.8206 175° South 166 191 13,100  Level Seattle Center
06:39PM 41.5133 -122.8153 175° South 166 191 13,100  Level Seattle Center
06:40PM 41.4669 -122.8103 174° South 166 191 13,100  Level Seattle Center
06:41PM 41.4119 -122.8025 154° Southeast 166 191 13,100  Level Seattle Center
06:42PM 41.3736 -122.7778 162° South 172 198 13,100  Level Seattle Center
06:43PM 41.3294 -122.7583 161° South 170 196 13,100  Level Seattle Center
06:44PM 41.2769 -122.7347 163° South 167 192 13,100  Level Seattle Center
06:45PM 41.2331 -122.7167 161° South 166 191 13,200  Climbing Seattle Center
06:46PM 41.1906 -122.6972 163° South 164 189 13,200  Level Seattle Center
06:47PM 41.1472 -122.6800 161° South 163 188 13,300  Climbing Seattle Center
06:48PM 41.1028 -122.6594 162° South 166 191 13,200 -60 Descending Seattle Center
06:49PM 41.0586 -122.6400 162° South 167 192 13,200  Level Seattle Center
06:50PM 41.0144 -122.6214 163° South 167 192 13,200  Level Seattle Center
06:51PM 40.9694 -122.6031 172° South 169 194 13,300 -60 Climbing Seattle Center
06:53PM 40.8814 -122.5872 191° South 164 189 13,100 -120 Descending Oakland Center
06:54PM 40.8333 -122.6000 182° South 159 183 13,000  Descending Oakland Center
06:55PM 40.7894 -122.6017 187° South 159 183 13,100  Climbing Oakland Center
06:56PM 40.7436 -122.6086 184° South 159 183 13,000 -60 Descending Oakland Center
06:57PM 40.6978 -122.6131 184° South 159 183 13,000  Level Oakland Center
06:58PM 40.6497 -122.6175 184° South 164 189 13,100  Climbing Oakland Center
06:59PM 40.6039 -122.6217 184° South 164 189 13,100  Level Oakland Center
07:00PM 40.5581 -122.6261 184° South 164 189 13,100 -60 Level Oakland Center
07:01PM 40.5119 -122.6306 184° South 164 189 13,000  Descending Oakland Center
07:02PM 40.4639 -122.6347 184° South 169 194 13,100  Climbing Oakland Center
07:03PM 40.4181 -122.6392 184° South 169 194 13,100  Level Oakland Center
07:04PM 40.3700 -122.6436 184° South 169 194 13,100  Level Oakland Center
07:05PM 40.3242 -122.6478 184° South 169 194 13,100 -60 Level Oakland Center
07:06PM 40.2783 -122.6522 187° South 169 194 13,000  Descending Oakland Center
07:07PM 40.2322 -122.6592 182° South 174 200 13,100  Climbing Oakland Center
07:08PM 40.1844 -122.6608 187° South 174 200 13,000 -60 Descending Oakland Center
07:09PM 40.1383 -122.6678 184° South 174 200 13,000  Level Oakland Center
07:10PM 40.0906 -122.6719 182° South 174 200 13,000  Level Oakland Center
07:11PM 40.0444 -122.6736 186° South 174 200 13,100  Climbing Oakland Center
07:12PM 39.9964 -122.6806 182° South 174 200 13,100  Level Oakland Center
07:13PM 39.9528 -122.6822 184° South 174 200 13,100  Level Oakland Center
07:14PM 39.9047 -122.6867 184° South 174 200 13,100  Level Oakland Center
07:15PM 39.8586 -122.6908 184° South 174 200 13,100 -180 Level Oakland Center
07:16PM 39.8128 -122.6950 182° South 174 200 12,800 -360 Descending Oakland Center
07:17PM 39.7689 -122.6967 184° South 174 200 12,400 -420 Descending Oakland Center
07:23PM 39.5039 -122.7225 182° South 163 188 10,200 -360 Descending Oakland Center
07:24PM 39.4642 -122.7242 184° South 163 188 9,900 -360 Descending Oakland Center
07:25PM 39.4203 -122.7286 188° South 163 188 9,500 -420 Descending Oakland Center
07:26PM 39.3806 -122.7356 185° South 158 182 9,100 -300 Descending Oakland Center
07:27PM 39.3389 -122.7400 185° South 158 182 8,900 -360 Descending Oakland Center
07:28PM 39.2972 -122.7444 185° South 158 182 8,500 -300 Descending Oakland Center
07:29PM 39.2575 -122.7486 188° South 158 182 8,300 -180 Descending Oakland Center
07:30PM 39.2178 -122.7558 182° South 158 182 8,200 -240 Descending Oakland Center
07:31PM 39.1781 -122.7575 184° South 158 182 7,900 -420 Descending Oakland Center
07:32PM 39.1364 -122.7617 185° South 158 182 7,400 -480 Descending Oakland Center
07:33PM 39.0986 -122.7661 182° South 158 182 7,000 -300 Descending Oakland Center
07:34PM 39.0592 -122.7678 179° South 153 176 6,800 -300 Descending Oakland Center
07:35PM 39.0194 -122.7669 185° South 147 169 6,400 -420 Descending Oakland Center
07:36PM 38.9797 -122.7711 185° South 142 163 6,000 -420 Descending Oakland Center
07:37PM 38.9400 -122.7756 183° South 142 163 5,600 -360 Descending Oakland Center
07:38PM 38.9067 -122.7775 179° South 142 163 5,300 -180 Descending Oakland Center
07:39PM 38.8692 -122.7764 185° South 142 163 5,300 -180 Level Oakland Center
07:40PM 38.8294 -122.7808 182° South 142 163 5,000 -300 Descending Oakland Center
07:41PM 38.7878 -122.7825 189° South 142 163 4,800 -240 Descending Oakland Center
07:42PM 38.7522 -122.7894 185° South 142 163 4,600 -480 Descending Oakland Center
07:43PM 38.7125 -122.7939 188° South 142 163 3,900 -660 Descending Oakland Center
07:44PM 38.6728 -122.8008 194° South 142 163 3,300 -600 Descending Oakland Center
07:45PM 38.6350 -122.8133 194° South 142 163 2,800 -540 Descending Oakland Center